sensor_id;sensor_type;location;lat;lon;timestamp;pressure;altitude;pressure_sealevel;temperature;humidity
72855;BME280;60991;51.278;22.550;2023-01-16T00:00:19;98289.78;;;5.00;81.44
72855;BME280;60991;51.278;22.550;2023-01-16T00:01:50;98287.13;;;4.88;81.59
72855;BME280;60991;51.278;22.550;2023-01-16T00:03:21;98282.22;;;4.80;81.80
72855;BME280;60991;51.278;22.550;2023-01-16T00:04:51;98281.50;;;4.73;82.27
72855;BME280;60991;51.278;22.550;2023-01-16T00:06:21;98276.13;;;4.68;82.36
72855;BME280;60991;51.278;22.550;2023-01-16T00:07:52;98271.56;;;4.64;82.59
72855;BME280;60991;51.278;22.550;2023-01-16T00:09:22;98281.28;;;4.63;82.42
72855;BME280;60991;51.278;22.550;2023-01-16T00:10:52;98276.91;;;4.57;82.54
72855;BME280;60991;51.278;22.550;2023-01-16T00:12:22;98267.41;;;4.56;82.91
72855;BME280;60991;51.278;22.550;2023-01-16T00:13:52;98267.19;;;4.58;82.60
72855;BME280;60991;51.278;22.550;2023-01-16T00:15:22;98257.50;;;4.58;82.62
72855;BME280;60991;51.278;22.550;2023-01-16T00:16:53;98258.88;;;4.61;82.81
72855;BME280;60991;51.278;22.550;2023-01-16T00:18:23;98263.31;;;4.60;82.64
72855;BME280;60991;51.278;22.550;2023-01-16T00:19:53;98260.69;;;4.60;82.88
72855;BME280;60991;51.278;22.550;2023-01-16T00:21:24;98263.41;;;4.65;82.43
72855;BME280;60991;51.278;22.550;2023-01-16T00:22:54;98251.66;;;4.68;82.39
72855;BME280;60991;51.278;22.550;2023-01-16T00:24:24;98249.47;;;4.65;82.12
72855;BME280;60991;51.278;22.550;2023-01-16T00:25:55;98246.97;;;4.70;81.87
72855;BME280;60991;51.278;22.550;2023-01-16T00:27:25;98240.47;;;4.84;81.45
72855;BME280;60991;51.278;22.550;2023-01-16T00:28:55;98241.16;;;4.91;81.16
72855;BME280;60991;51.278;22.550;2023-01-16T00:30:26;98241.94;;;5.03;80.95
72855;BME280;60991;51.278;22.550;2023-01-16T00:31:56;98240.25;;;4.97;80.52
72855;BME280;60991;51.278;22.550;2023-01-16T00:33:26;98239.44;;;5.08;79.92
72855;BME280;60991;51.278;22.550;2023-01-16T00:34:56;98237.97;;;5.12;80.08
72855;BME280;60991;51.278;22.550;2023-01-16T00:36:26;98235.69;;;5.16;79.98
72855;BME280;60991;51.278;22.550;2023-01-16T00:37:57;98241.03;;;5.09;80.08
72855;BME280;60991;51.278;22.550;2023-01-16T00:39:27;98238.72;;;5.25;79.76
72855;BME280;60991;51.278;22.550;2023-01-16T00:40:57;98235.53;;;5.34;79.26
72855;BME280;60991;51.278;22.550;2023-01-16T00:42:27;98234.34;;;5.42;78.92
72855;BME280;60991;51.278;22.550;2023-01-16T00:43:58;98230.72;;;5.31;79.28
72855;BME280;60991;51.278;22.550;2023-01-16T00:45:28;98233.25;;;5.26;79.28
72855;BME280;60991;51.278;22.550;2023-01-16T00:46:58;98239.53;;;5.25;79.86
72855;BME280;60991;51.278;22.550;2023-01-16T00:48:28;98242.41;;;5.12;79.76
72855;BME280;60991;51.278;22.550;2023-01-16T00:49:59;98242.97;;;5.26;79.40
72855;BME280;60991;51.278;22.550;2023-01-16T00:51:29;98242.41;;;5.35;78.99
72855;BME280;60991;51.278;22.550;2023-01-16T00:52:59;98243.78;;;5.38;79.30
72855;BME280;60991;51.278;22.550;2023-01-16T00:54:29;98236.31;;;5.46;78.71
72855;BME280;60991;51.278;22.550;2023-01-16T00:56:00;98244.53;;;5.38;79.06
72855;BME280;60991;51.278;22.550;2023-01-16T00:57:30;98238.72;;;5.36;79.24
72855;BME280;60991;51.278;22.550;2023-01-16T00:59:00;98247.44;;;5.25;79.30
72855;BME280;60991;51.278;22.550;2023-01-16T01:00:30;98251.13;;;5.12;79.89
72855;BME280;60991;51.278;22.550;2023-01-16T01:02:01;98239.19;;;5.21;79.68
72855;BME280;60991;51.278;22.550;2023-01-16T01:03:31;98229.16;;;5.18;79.74
72855;BME280;60991;51.278;22.550;2023-01-16T01:05:01;98239.06;;;5.28;79.80
72855;BME280;60991;51.278;22.550;2023-01-16T01:06:33;98241.47;;;5.30;79.37
72855;BME280;60991;51.278;22.550;2023-01-16T01:08:03;98239.41;;;5.20;79.74
72855;BME280;60991;51.278;22.550;2023-01-16T01:09:34;98238.88;;;4.95;80.08
72855;BME280;60991;51.278;22.550;2023-01-16T01:11:07;98242.28;;;4.83;81.03
72855;BME280;60991;51.278;22.550;2023-01-16T01:12:37;98253.63;;;4.84;80.97
72855;BME280;60991;51.278;22.550;2023-01-16T01:14:07;98246.41;;;4.68;81.86
72855;BME280;60991;51.278;22.550;2023-01-16T01:15:37;98248.81;;;4.58;82.03
72855;BME280;60991;51.278;22.550;2023-01-16T01:17:08;98242.25;;;4.48;82.71
72855;BME280;60991;51.278;22.550;2023-01-16T01:18:38;98241.13;;;4.44;82.51
72855;BME280;60991;51.278;22.550;2023-01-16T01:20:09;98247.41;;;4.43;83.06
72855;BME280;60991;51.278;22.550;2023-01-16T01:21:39;98249.47;;;4.41;83.05
72855;BME280;60991;51.278;22.550;2023-01-16T01:23:10;98246.94;;;4.46;83.32
72855;BME280;60991;51.278;22.550;2023-01-16T01:24:40;98248.22;;;4.44;82.72
72855;BME280;60991;51.278;22.550;2023-01-16T01:26:15;98249.47;;;4.41;83.06
72855;BME280;60991;51.278;22.550;2023-01-16T01:27:45;98235.16;;;4.37;82.82
72855;BME280;60991;51.278;22.550;2023-01-16T01:29:15;98243.63;;;4.39;83.00
72855;BME280;60991;51.278;22.550;2023-01-16T01:30:46;98244.31;;;4.46;82.88
72855;BME280;60991;51.278;22.550;2023-01-16T01:32:16;98243.28;;;4.47;82.70
72855;BME280;60991;51.278;22.550;2023-01-16T01:33:46;98242.47;;;4.47;82.72
72855;BME280;60991;51.278;22.550;2023-01-16T01:35:16;98243.50;;;4.46;82.61
72855;BME280;60991;51.278;22.550;2023-01-16T01:36:47;98237.81;;;4.49;82.85
72855;BME280;60991;51.278;22.550;2023-01-16T01:38:17;98232.69;;;4.42;82.90
72855;BME280;60991;51.278;22.550;2023-01-16T01:39:47;98233.25;;;4.44;82.85
72855;BME280;60991;51.278;22.550;2023-01-16T01:41:17;98241.34;;;4.43;82.88
72855;BME280;60991;51.278;22.550;2023-01-16T01:42:47;98235.75;;;4.39;82.77
72855;BME280;60991;51.278;22.550;2023-01-16T01:46:26;98233.91;;;4.40;82.91
72855;BME280;60991;51.278;22.550;2023-01-16T01:49:38;98227.88;;;4.39;83.26
72855;BME280;60991;51.278;22.550;2023-01-16T01:51:13;98228.81;;;4.45;82.70
72855;BME280;60991;51.278;22.550;2023-01-16T01:52:45;98227.19;;;4.44;82.73
72855;BME280;60991;51.278;22.550;2023-01-16T01:54:22;98219.31;;;4.44;82.63
72855;BME280;60991;51.278;22.550;2023-01-16T01:55:55;98224.13;;;4.59;82.37
72855;BME280;60991;51.278;22.550;2023-01-16T01:57:41;98214.50;;;4.52;81.91
72855;BME280;60991;51.278;22.550;2023-01-16T01:59:18;98221.69;;;4.45;82.18
72855;BME280;60991;51.278;22.550;2023-01-16T02:00:53;98223.63;;;4.38;82.53
72855;BME280;60991;51.278;22.550;2023-01-16T02:02:29;98225.31;;;4.33;82.93
72855;BME280;60991;51.278;22.550;2023-01-16T02:04:05;98222.81;;;4.26;83.07
72855;BME280;60991;51.278;22.550;2023-01-16T02:05:43;98225.31;;;4.33;82.86
72855;BME280;60991;51.278;22.550;2023-01-16T02:07:16;98224.31;;;4.34;82.41
72855;BME280;60991;51.278;22.550;2023-01-16T02:08:50;98223.16;;;4.30;82.77
72855;BME280;60991;51.278;22.550;2023-01-16T02:10:29;98219.94;;;4.28;82.79
72855;BME280;60991;51.278;22.550;2023-01-16T02:12:06;98217.22;;;4.23;83.20
72855;BME280;60991;51.278;22.550;2023-01-16T02:13:38;98218.47;;;4.20;82.97
72855;BME280;60991;51.278;22.550;2023-01-16T02:15:08;98217.00;;;4.24;83.50
72855;BME280;60991;51.278;22.550;2023-01-16T02:16:39;98214.00;;;4.21;83.38
72855;BME280;60991;51.278;22.550;2023-01-16T02:18:09;98214.38;;;4.24;83.37
72855;BME280;60991;51.278;22.550;2023-01-16T02:19:50;98214.25;;;4.31;83.24
72855;BME280;60991;51.278;22.550;2023-01-16T02:21:37;98215.03;;;4.31;83.14
72855;BME280;60991;51.278;22.550;2023-01-16T02:23:24;98218.13;;;4.28;82.87
72855;BME280;60991;51.278;22.550;2023-01-16T02:33:36;98214.00;;;4.21;83.11
72855;BME280;60991;51.278;22.550;2023-01-16T02:34:57;98210.56;;;4.20;83.45
72855;BME280;60991;51.278;22.550;2023-01-16T02:37:11;98201.53;;;4.16;83.85
72855;BME280;60991;51.278;22.550;2023-01-16T02:39:11;98203.63;;;4.26;83.24
72855;BME280;60991;51.278;22.550;2023-01-16T02:42:53;98200.19;;;4.25;83.03
72855;BME280;60991;51.278;22.550;2023-01-16T02:49:49;98207.06;;;4.26;83.33
72855;BME280;60991;51.278;22.550;2023-01-16T02:53:17;98204.75;;;4.18;83.56
72855;BME280;60991;51.278;22.550;2023-01-16T02:55:26;98201.63;;;4.09;84.08
72855;BME280;60991;51.278;22.550;2023-01-16T02:57:10;98201.88;;;4.08;84.29
72855;BME280;60991;51.278;22.550;2023-01-16T02:58:43;98204.72;;;4.06;84.03
72855;BME280;60991;51.278;22.550;2023-01-16T03:00:16;98206.56;;;4.06;83.87
72855;BME280;60991;51.278;22.550;2023-01-16T03:01:49;98201.75;;;4.03;84.59
72855;BME280;60991;51.278;22.550;2023-01-16T03:03:34;98206.78;;;4.04;84.08
72855;BME280;60991;51.278;22.550;2023-01-16T03:05:06;98197.97;;;3.99;84.18
72855;BME280;60991;51.278;22.550;2023-01-16T03:06:44;98200.59;;;3.99;84.13
72855;BME280;60991;51.278;22.550;2023-01-16T03:08:34;98201.16;;;4.01;84.20
72855;BME280;60991;51.278;22.550;2023-01-16T03:15:12;98194.16;;;4.25;83.28
72855;BME280;60991;51.278;22.550;2023-01-16T03:22:03;98183.06;;;4.34;82.44
72855;BME280;60991;51.278;22.550;2023-01-16T03:23:44;98182.38;;;4.27;82.49
72855;BME280;60991;51.278;22.550;2023-01-16T03:25:24;98184.81;;;4.40;81.96
72855;BME280;60991;51.278;22.550;2023-01-16T03:27:06;98189.59;;;4.43;81.37
72855;BME280;60991;51.278;22.550;2023-01-16T03:29:29;98188.09;;;4.24;81.79
72855;BME280;60991;51.278;22.550;2023-01-16T03:32:36;98177.47;;;4.31;81.95
72855;BME280;60991;51.278;22.550;2023-01-16T03:34:18;98168.78;;;4.30;81.83
72855;BME280;60991;51.278;22.550;2023-01-16T03:35:59;98168.41;;;4.15;82.20
72855;BME280;60991;51.278;22.550;2023-01-16T03:37:35;98174.91;;;4.01;82.81
72855;BME280;60991;51.278;22.550;2023-01-16T03:39:08;98174.47;;;4.04;82.63
72855;BME280;60991;51.278;22.550;2023-01-16T03:40:43;98174.34;;;4.10;82.49
72855;BME280;60991;51.278;22.550;2023-01-16T03:42:23;98166.22;;;4.00;82.64
72855;BME280;60991;51.278;22.550;2023-01-16T03:43:59;98179.81;;;3.97;83.37
72855;BME280;60991;51.278;22.550;2023-01-16T03:45:38;98162.44;;;3.96;83.07
72855;BME280;60991;51.278;22.550;2023-01-16T03:47:16;98163.69;;;3.94;83.38
72855;BME280;60991;51.278;22.550;2023-01-16T03:49:01;98162.31;;;3.91;83.31
72855;BME280;60991;51.278;22.550;2023-01-16T03:50:36;98159.69;;;3.91;83.19
72855;BME280;60991;51.278;22.550;2023-01-16T03:52:10;98165.63;;;3.87;83.87
72855;BME280;60991;51.278;22.550;2023-01-16T03:53:45;98160.59;;;3.85;83.42
72855;BME280;60991;51.278;22.550;2023-01-16T03:55:27;98172.69;;;3.86;83.72
72855;BME280;60991;51.278;22.550;2023-01-16T03:57:25;98177.72;;;3.88;83.88
72855;BME280;60991;51.278;22.550;2023-01-16T03:58:56;98172.00;;;3.91;83.53
72855;BME280;60991;51.278;22.550;2023-01-16T04:00:36;98172.34;;;3.82;84.21
72855;BME280;60991;51.278;22.550;2023-01-16T04:02:21;98173.38;;;3.81;83.80
72855;BME280;60991;51.278;22.550;2023-01-16T04:04:04;98169.81;;;3.76;84.41
72855;BME280;60991;51.278;22.550;2023-01-16T04:05:48;98171.53;;;3.82;84.22
72855;BME280;60991;51.278;22.550;2023-01-16T04:07:43;98170.16;;;3.79;84.05
72855;BME280;60991;51.278;22.550;2023-01-16T04:09:25;98165.34;;;3.76;84.36
72855;BME280;60991;51.278;22.550;2023-01-16T04:10:59;98159.53;;;3.74;84.40
72855;BME280;60991;51.278;22.550;2023-01-16T04:12:33;98162.16;;;3.74;84.65
72855;BME280;60991;51.278;22.550;2023-01-16T04:14:06;98151.78;;;3.79;84.72
72855;BME280;60991;51.278;22.550;2023-01-16T04:15:44;98151.56;;;3.81;84.12
72855;BME280;60991;51.278;22.550;2023-01-16T04:17:16;98161.34;;;3.74;84.67
72855;BME280;60991;51.278;22.550;2023-01-16T04:18:49;98142.94;;;3.62;84.84
72855;BME280;60991;51.278;22.550;2023-01-16T04:20:20;98145.00;;;3.60;84.88
72855;BME280;60991;51.278;22.550;2023-01-16T04:21:51;98146.25;;;3.58;85.16
72855;BME280;60991;51.278;22.550;2023-01-16T04:23:21;98157.75;;;3.57;85.65
72855;BME280;60991;51.278;22.550;2023-01-16T04:24:52;98158.34;;;3.59;85.61
72855;BME280;60991;51.278;22.550;2023-01-16T04:26:23;98153.44;;;3.62;85.64
72855;BME280;60991;51.278;22.550;2023-01-16T04:27:53;98155.28;;;3.62;85.53
72855;BME280;60991;51.278;22.550;2023-01-16T04:29:24;98158.13;;;3.60;85.69
72855;BME280;60991;51.278;22.550;2023-01-16T04:30:54;98153.66;;;3.61;85.47
72855;BME280;60991;51.278;22.550;2023-01-16T04:32:24;98158.25;;;3.65;85.03
72855;BME280;60991;51.278;22.550;2023-01-16T04:33:55;98160.22;;;3.70;85.34
72855;BME280;60991;51.278;22.550;2023-01-16T04:35:25;98164.09;;;3.67;85.49
72855;BME280;60991;51.278;22.550;2023-01-16T04:36:55;98171.97;;;3.67;85.71
72855;BME280;60991;51.278;22.550;2023-01-16T04:38:25;98172.31;;;3.71;85.49
72855;BME280;60991;51.278;22.550;2023-01-16T04:39:55;98170.25;;;3.73;85.18
72855;BME280;60991;51.278;22.550;2023-01-16T04:41:26;98162.03;;;3.69;85.13
72855;BME280;60991;51.278;22.550;2023-01-16T04:42:56;98171.97;;;3.67;85.07
72855;BME280;60991;51.278;22.550;2023-01-16T04:44:26;98172.63;;;3.63;85.33
72855;BME280;60991;51.278;22.550;2023-01-16T04:45:56;98174.66;;;3.61;85.72
72855;BME280;60991;51.278;22.550;2023-01-16T04:47:26;98178.88;;;3.62;85.77
72855;BME280;60991;51.278;22.550;2023-01-16T04:48:57;98183.91;;;3.63;84.87
72855;BME280;60991;51.278;22.550;2023-01-16T04:50:27;98183.09;;;3.63;85.12
72855;BME280;60991;51.278;22.550;2023-01-16T04:51:57;98187.34;;;3.64;85.73
72855;BME280;60991;51.278;22.550;2023-01-16T04:53:27;98184.56;;;3.59;85.57
72855;BME280;60991;51.278;22.550;2023-01-16T04:54:57;98178.88;;;3.62;85.37
72855;BME280;60991;51.278;22.550;2023-01-16T04:56:28;98181.28;;;3.63;85.13
72855;BME280;60991;51.278;22.550;2023-01-16T04:57:58;98177.88;;;3.63;85.60
72855;BME280;60991;51.278;22.550;2023-01-16T04:59:28;98169.69;;;3.71;85.43
72855;BME280;60991;51.278;22.550;2023-01-16T05:00:58;98177.00;;;3.80;84.96
72855;BME280;60991;51.278;22.550;2023-01-16T05:02:28;98169.38;;;3.79;85.25
72855;BME280;60991;51.278;22.550;2023-01-16T05:03:59;98168.13;;;3.81;84.68
72855;BME280;60991;51.278;22.550;2023-01-16T05:05:29;98158.56;;;3.87;84.56
72855;BME280;60991;51.278;22.550;2023-01-16T05:06:59;98173.66;;;4.03;84.14
72855;BME280;60991;51.278;22.550;2023-01-16T05:08:29;98169.75;;;3.94;84.01
72855;BME280;60991;51.278;22.550;2023-01-16T05:09:59;98161.88;;;3.94;84.02
72855;BME280;60991;51.278;22.550;2023-01-16T05:11:30;98161.44;;;3.97;83.77
72855;BME280;60991;51.278;22.550;2023-01-16T05:13:01;98164.41;;;4.01;83.90
72855;BME280;60991;51.278;22.550;2023-01-16T05:14:31;98162.81;;;4.11;83.25
72855;BME280;60991;51.278;22.550;2023-01-16T05:16:01;98163.75;;;4.05;83.42
72855;BME280;60991;51.278;22.550;2023-01-16T05:17:31;98167.03;;;4.01;83.60
72855;BME280;60991;51.278;22.550;2023-01-16T05:19:01;98174.19;;;3.94;83.25
72855;BME280;60991;51.278;22.550;2023-01-16T05:20:32;98168.03;;;3.88;83.71
72855;BME280;60991;51.278;22.550;2023-01-16T05:22:02;98162.22;;;3.86;83.50
72855;BME280;60991;51.278;22.550;2023-01-16T05:23:33;98172.50;;;3.99;83.50
72855;BME280;60991;51.278;22.550;2023-01-16T05:25:03;98168.50;;;3.97;83.31
72855;BME280;60991;51.278;22.550;2023-01-16T05:26:34;98177.25;;;3.91;82.82
72855;BME280;60991;51.278;22.550;2023-01-16T05:28:05;98168.91;;;3.82;83.49
72855;BME280;60991;51.278;22.550;2023-01-16T05:29:35;98163.31;;;3.78;83.40
72855;BME280;60991;51.278;22.550;2023-01-16T05:31:05;98171.41;;;3.77;83.63
72855;BME280;60991;51.278;22.550;2023-01-16T05:32:35;98169.38;;;3.91;83.47
72855;BME280;60991;51.278;22.550;2023-01-16T05:34:07;98170.31;;;3.85;83.62
72855;BME280;60991;51.278;22.550;2023-01-16T05:35:37;98168.84;;;3.89;83.18
72855;BME280;60991;51.278;22.550;2023-01-16T05:37:08;98181.16;;;3.88;83.31
72855;BME280;60991;51.278;22.550;2023-01-16T05:38:38;98176.00;;;3.81;83.41
72855;BME280;60991;51.278;22.550;2023-01-16T05:40:09;98181.53;;;3.73;83.67
72855;BME280;60991;51.278;22.550;2023-01-16T05:41:39;98184.53;;;3.77;83.43
72855;BME280;60991;51.278;22.550;2023-01-16T05:43:10;98174.53;;;3.86;83.37
72855;BME280;60991;51.278;22.550;2023-01-16T05:44:40;98185.03;;;3.86;82.75
72855;BME280;60991;51.278;22.550;2023-01-16T05:46:11;98180.22;;;3.82;83.16
72855;BME280;60991;51.278;22.550;2023-01-16T05:47:41;98185.34;;;3.77;83.45
72855;BME280;60991;51.278;22.550;2023-01-16T05:49:12;98176.00;;;3.81;83.24
72855;BME280;60991;51.278;22.550;2023-01-16T05:50:43;98184.47;;;3.95;82.62
72855;BME280;60991;51.278;22.550;2023-01-16T05:52:13;98182.66;;;3.96;82.93
72855;BME280;60991;51.278;22.550;2023-01-16T05:53:49;98190.09;;;4.10;82.23
72855;BME280;60991;51.278;22.550;2023-01-16T05:55:19;98190.47;;;4.14;82.20
72855;BME280;60991;51.278;22.550;2023-01-16T05:56:49;98187.75;;;4.21;82.21
72855;BME280;60991;51.278;22.550;2023-01-16T05:58:19;98195.50;;;4.27;81.56
72855;BME280;60991;51.278;22.550;2023-01-16T05:59:50;98192.88;;;4.27;81.40
72855;BME280;60991;51.278;22.550;2023-01-16T06:01:20;98195.13;;;4.12;81.36
72855;BME280;60991;51.278;22.550;2023-01-16T06:02:50;98182.44;;;3.97;82.09
72855;BME280;60991;51.278;22.550;2023-01-16T06:04:20;98188.94;;;3.95;82.03
72855;BME280;60991;51.278;22.550;2023-01-16T06:05:51;98183.72;;;4.06;81.45
72855;BME280;60991;51.278;22.550;2023-01-16T06:07:21;98183.00;;;3.99;81.83
72855;BME280;60991;51.278;22.550;2023-01-16T06:08:51;98182.91;;;4.06;81.74
72855;BME280;60991;51.278;22.550;2023-01-16T06:10:22;98180.44;;;4.23;81.41
72855;BME280;60991;51.278;22.550;2023-01-16T06:11:53;98180.78;;;4.26;81.50
72855;BME280;60991;51.278;22.550;2023-01-16T06:13:23;98174.75;;;4.37;80.90
72855;BME280;60991;51.278;22.550;2023-01-16T06:14:53;98172.03;;;4.44;80.44
72855;BME280;60991;51.278;22.550;2023-01-16T06:16:23;98170.41;;;4.55;80.24
72855;BME280;60991;51.278;22.550;2023-01-16T06:17:53;98168.13;;;4.58;80.03
72855;BME280;60991;51.278;22.550;2023-01-16T06:19:24;98169.06;;;4.64;79.92
72855;BME280;60991;51.278;22.550;2023-01-16T06:20:54;98165.38;;;4.53;79.79
72855;BME280;60991;51.278;22.550;2023-01-16T06:22:24;98167.88;;;4.36;79.93
72855;BME280;60991;51.278;22.550;2023-01-16T06:23:54;98169.00;;;4.17;80.52
72855;BME280;60991;51.278;22.550;2023-01-16T06:25:25;98149.16;;;4.21;80.43
72855;BME280;60991;51.278;22.550;2023-01-16T06:26:55;98146.97;;;4.30;80.28
72855;BME280;60991;51.278;22.550;2023-01-16T06:28:25;98162.38;;;4.14;80.33
72855;BME280;60991;51.278;22.550;2023-01-16T06:29:55;98159.38;;;4.11;80.80
72855;BME280;60991;51.278;22.550;2023-01-16T06:31:25;98161.91;;;4.06;81.20
72855;BME280;60991;51.278;22.550;2023-01-16T06:32:55;98165.44;;;4.11;80.96
72855;BME280;60991;51.278;22.550;2023-01-16T06:34:26;98167.63;;;4.14;80.60
72855;BME280;60991;51.278;22.550;2023-01-16T06:35:56;98174.84;;;4.19;81.04
72855;BME280;60991;51.278;22.550;2023-01-16T06:37:26;98166.81;;;4.14;81.20
72855;BME280;60991;51.278;22.550;2023-01-16T06:38:57;98156.91;;;4.28;80.49
72855;BME280;60991;51.278;22.550;2023-01-16T06:40:27;98151.00;;;4.44;79.82
72855;BME280;60991;51.278;22.550;2023-01-16T06:41:57;98138.09;;;4.42;79.82
72855;BME280;60991;51.278;22.550;2023-01-16T06:43:28;98140.94;;;4.41;79.70
72855;BME280;60991;51.278;22.550;2023-01-16T06:44:58;98140.25;;;4.22;80.11
72855;BME280;60991;51.278;22.550;2023-01-16T06:46:28;98136.94;;;4.27;79.58
72855;BME280;60991;51.278;22.550;2023-01-16T06:47:59;98139.91;;;4.42;79.65
72855;BME280;60991;51.278;22.550;2023-01-16T06:49:29;98135.34;;;4.37;79.20
72855;BME280;60991;51.278;22.550;2023-01-16T06:50:59;98139.00;;;4.25;79.48
72855;BME280;60991;51.278;22.550;2023-01-16T06:52:30;98143.53;;;4.06;79.38
72855;BME280;60991;51.278;22.550;2023-01-16T06:54:00;98147.38;;;3.92;80.15
72855;BME280;60991;51.278;22.550;2023-01-16T06:55:30;98135.59;;;3.82;80.42
72855;BME280;60991;51.278;22.550;2023-01-16T06:57:01;98134.44;;;3.78;80.65
72855;BME280;60991;51.278;22.550;2023-01-16T06:58:31;98132.09;;;3.89;80.85
72855;BME280;60991;51.278;22.550;2023-01-16T07:00:03;98136.31;;;4.01;80.43
72855;BME280;60991;51.278;22.550;2023-01-16T07:01:33;98137.56;;;3.99;80.09
72855;BME280;60991;51.278;22.550;2023-01-16T07:03:04;98141.88;;;3.93;80.39
72855;BME280;60991;51.278;22.550;2023-01-16T07:04:34;98132.19;;;3.94;80.17
72855;BME280;60991;51.278;22.550;2023-01-16T07:06:04;98136.63;;;3.81;80.66
72855;BME280;60991;51.278;22.550;2023-01-16T07:07:35;98132.97;;;3.82;81.38
72855;BME280;60991;51.278;22.550;2023-01-16T07:09:05;98128.31;;;3.96;80.83
72855;BME280;60991;51.278;22.550;2023-01-16T07:10:36;98121.97;;;4.15;80.27
72855;BME280;60991;51.278;22.550;2023-01-16T07:12:06;98116.38;;;4.35;79.62
72855;BME280;60991;51.278;22.550;2023-01-16T07:13:36;98119.34;;;4.39;79.41
72855;BME280;60991;51.278;22.550;2023-01-16T07:15:08;98120.59;;;4.48;79.08
72855;BME280;60991;51.278;22.550;2023-01-16T07:16:39;98126.66;;;4.60;78.99
72855;BME280;60991;51.278;22.550;2023-01-16T07:18:12;98117.84;;;4.66;78.46
72855;BME280;60991;51.278;22.550;2023-01-16T07:19:43;98125.84;;;4.60;78.39
72855;BME280;60991;51.278;22.550;2023-01-16T07:21:13;98127.00;;;4.64;78.26
72855;BME280;60991;51.278;22.550;2023-01-16T07:22:44;98126.41;;;4.73;78.01
72855;BME280;60991;51.278;22.550;2023-01-16T07:24:18;98134.44;;;4.55;78.27
72855;BME280;60991;51.278;22.550;2023-01-16T07:25:49;98131.78;;;4.55;77.92
72855;BME280;60991;51.278;22.550;2023-01-16T07:27:19;98129.84;;;4.62;77.79
72855;BME280;60991;51.278;22.550;2023-01-16T07:28:50;98127.78;;;4.64;77.74
72855;BME280;60991;51.278;22.550;2023-01-16T07:30:23;98128.03;;;4.51;77.66
72855;BME280;60991;51.278;22.550;2023-01-16T07:31:54;98133.16;;;4.58;77.98
72855;BME280;60991;51.278;22.550;2023-01-16T07:33:24;98140.69;;;4.31;78.48
72855;BME280;60991;51.278;22.550;2023-01-16T07:34:54;98141.47;;;4.08;79.25
72855;BME280;60991;51.278;22.550;2023-01-16T07:36:24;98146.91;;;3.95;79.47
72855;BME280;60991;51.278;22.550;2023-01-16T07:37:54;98141.78;;;3.88;80.10
72855;BME280;60991;51.278;22.550;2023-01-16T07:39:25;98145.66;;;3.97;80.13
72855;BME280;60991;51.278;22.550;2023-01-16T07:40:55;98138.47;;;3.93;80.29
72855;BME280;60991;51.278;22.550;2023-01-16T07:42:25;98140.19;;;3.99;80.21
72855;BME280;60991;51.278;22.550;2023-01-16T07:43:55;98144.28;;;3.95;80.33
72855;BME280;60991;51.278;22.550;2023-01-16T07:45:25;98145.59;;;4.04;79.92
72855;BME280;60991;51.278;22.550;2023-01-16T07:46:56;98140.56;;;4.02;80.04
72855;BME280;60991;51.278;22.550;2023-01-16T07:48:26;98134.97;;;4.10;80.03
72855;BME280;60991;51.278;22.550;2023-01-16T07:49:56;98135.88;;;4.16;79.68
72855;BME280;60991;51.278;22.550;2023-01-16T07:51:26;98136.69;;;4.16;79.33
72855;BME280;60991;51.278;22.550;2023-01-16T07:52:57;98140.00;;;4.35;79.04
72855;BME280;60991;51.278;22.550;2023-01-16T07:54:27;98142.28;;;4.32;79.19
72855;BME280;60991;51.278;22.550;2023-01-16T07:55:59;98133.75;;;4.25;79.22
72855;BME280;60991;51.278;22.550;2023-01-16T07:57:30;98129.97;;;4.32;78.71
72855;BME280;60991;51.278;22.550;2023-01-16T07:59:00;98129.84;;;4.39;78.53
72855;BME280;60991;51.278;22.550;2023-01-16T08:00:30;98129.06;;;4.38;78.41
72855;BME280;60991;51.278;22.550;2023-01-16T08:02:00;98125.19;;;4.41;78.33
72855;BME280;60991;51.278;22.550;2023-01-16T08:03:31;98126.06;;;4.46;77.92
72855;BME280;60991;51.278;22.550;2023-01-16T08:05:01;98122.19;;;4.37;78.16
72855;BME280;60991;51.278;22.550;2023-01-16T08:06:31;98134.09;;;4.40;78.09
72855;BME280;60991;51.278;22.550;2023-01-16T08:08:02;98122.06;;;4.32;78.18
72855;BME280;60991;51.278;22.550;2023-01-16T08:09:33;98119.91;;;4.29;78.67
72855;BME280;60991;51.278;22.550;2023-01-16T08:11:03;98121.63;;;4.35;78.56
72855;BME280;60991;51.278;22.550;2023-01-16T08:12:33;98114.75;;;4.46;78.01
72855;BME280;60991;51.278;22.550;2023-01-16T08:14:05;98117.28;;;4.41;78.26
72855;BME280;60991;51.278;22.550;2023-01-16T08:15:36;98113.97;;;4.34;78.36
72855;BME280;60991;51.278;22.550;2023-01-16T08:17:06;98106.19;;;4.50;77.99
72855;BME280;60991;51.278;22.550;2023-01-16T08:18:36;98113.88;;;4.64;77.67
72855;BME280;60991;51.278;22.550;2023-01-16T08:20:07;98116.72;;;4.62;77.79
72855;BME280;60991;51.278;22.550;2023-01-16T08:21:38;98116.81;;;4.67;77.85
72855;BME280;60991;51.278;22.550;2023-01-16T08:23:08;98113.63;;;4.77;77.29
72855;BME280;60991;51.278;22.550;2023-01-16T08:24:38;98116.72;;;4.62;77.47
72855;BME280;60991;51.278;22.550;2023-01-16T08:26:09;98119.13;;;4.64;77.45
72855;BME280;60991;51.278;22.550;2023-01-16T08:27:40;98121.50;;;4.65;77.29
72855;BME280;60991;51.278;22.550;2023-01-16T08:29:11;98117.66;;;4.44;77.11
72855;BME280;60991;51.278;22.550;2023-01-16T08:30:41;98124.72;;;4.21;77.70
72855;BME280;60991;51.278;22.550;2023-01-16T08:32:11;98124.94;;;4.07;78.83
72855;BME280;60991;51.278;22.550;2023-01-16T08:33:42;98124.44;;;4.10;78.70
72855;BME280;60991;51.278;22.550;2023-01-16T08:35:13;98123.88;;;4.08;78.74
72855;BME280;60991;51.278;22.550;2023-01-16T08:36:43;98126.50;;;4.08;78.33
72855;BME280;60991;51.278;22.550;2023-01-16T08:38:13;98131.75;;;3.97;78.80
72855;BME280;60991;51.278;22.550;2023-01-16T08:39:43;98131.75;;;3.97;79.12
72855;BME280;60991;51.278;22.550;2023-01-16T08:41:14;98123.19;;;4.01;79.57
72855;BME280;60991;51.278;22.550;2023-01-16T08:42:45;98112.34;;;4.09;79.32